Time;durP1;ratioP1;P1;durP2;ratioP2;P2;SDS_P1;SDS_P2;PMS_P1;PMS_P2;Temp;Humidity;BMP_temperature;BMP_pressure;BME280_temperature;BME280_humidity;BME280_pressure;Samples;Min_cycle;Max_cycle;Signal;HPM_P1;HPM_P2
2023/05/05 00:01:01;;;;;;;10.45;4.43;;;11.20;1.00;;;;;;4988985;28;20073;-90
2023/05/05 00:03:26;;;;;;;9.52;4.70;;;11.20;1.00;;;;;;4980582;28;20549;-90
2023/05/05 00:05:59;;;;;;;6.53;4.35;;;11.20;99.90;;;;;;4992051;28;20033;-89
2023/05/05 00:08:24;;;;;;;6.72;4.75;;;11.10;99.90;;;;;;4966731;28;20042;-89
2023/05/05 00:10:51;;;;;;;7.53;4.50;;;11.10;99.90;;;;;;4992297;28;20068;-90
2023/05/05 00:13:19;;;;;;;9.82;4.60;;;11.10;1.00;;;;;;4971296;28;20429;-90
2023/05/05 00:15:46;;;;;;;9.68;4.45;;;11.10;59.80;;;;;;4989701;28;20073;-90
2023/05/05 00:18:13;;;;;;;10.00;4.53;;;11.10;99.90;;;;;;4970395;28;20500;-90
2023/05/05 00:20:39;;;;;;;7.78;4.57;;;11.00;99.90;;;;;;4975070;28;20045;-90
2023/05/05 00:23:08;;;;;;;8.80;4.88;;;11.10;99.90;;;;;;4975820;28;20038;-89
2023/05/05 00:25:33;;;;;;;10.18;4.85;;;11.00;99.90;;;;;;4992410;28;20317;-91
2023/05/05 00:27:59;;;;;;;11.65;4.85;;;11.00;99.90;;;;;;4968281;28;20287;-89
2023/05/05 00:30:26;;;;;;;7.80;4.70;;;11.00;92.60;;;;;;4991057;28;20041;-90
2023/05/05 00:32:53;;;;;;;9.13;5.10;;;11.00;1.00;;;;;;4983025;28;20396;-90
2023/05/05 00:35:19;;;;;;;7.35;4.72;;;11.00;99.90;;;;;;4974372;28;20042;-89
2023/05/05 00:37:45;;;;;;;7.63;4.70;;;11.00;99.90;;;;;;4989944;28;20053;-88
2023/05/05 00:40:12;;;;;;;8.43;4.93;;;11.00;99.90;;;;;;4977548;28;20045;-90
2023/05/05 00:42:46;;;;;;;8.43;5.28;;;10.90;99.90;;;;;;4988599;28;20128;-89
2023/05/05 00:45:16;;;;;;;8.23;4.63;;;10.90;99.90;;;;;;4975955;28;20042;-91
2023/05/05 00:47:53;;;;;;;8.18;4.50;;;10.90;99.90;;;;;;4970015;28;20088;-90
2023/05/05 00:50:25;;;;;;;7.30;4.80;;;10.90;99.90;;;;;;4986652;28;20124;-90
2023/05/05 00:52:53;;;;;;;8.45;5.28;;;10.80;99.90;;;;;;4992435;28;20076;-90
2023/05/05 00:55:19;;;;;;;8.13;5.28;;;10.90;99.90;;;;;;4968625;28;20046;-90
2023/05/05 00:57:46;;;;;;;7.00;4.72;;;10.90;99.90;;;;;;4974494;28;20091;-89
2023/05/05 01:00:12;;;;;;;10.15;5.10;;;10.90;99.90;;;;;;4981001;28;20042;-90
2023/05/05 01:02:38;;;;;;;6.75;4.43;;;10.80;1.00;;;;;;4970874;28;20046;-90
2023/05/05 01:05:06;;;;;;;5.97;5.00;;;10.80;99.90;;;;;;4976218;28;20411;-90
2023/05/05 01:07:40;;;;;;;10.57;5.38;;;10.80;1.00;;;;;;4967500;28;20061;-90
2023/05/05 01:10:18;;;;;;;11.38;5.55;;;10.80;37.80;;;;;;4991152;28;20508;-90
2023/05/05 01:13:06;;;;;;;10.15;4.95;;;10.80;1.00;;;;;;4988992;28;20049;-90
2023/05/05 01:16:16;;;;;;;9.52;5.40;;;10.70;1.00;;;;;;4992983;28;20042;-90
2023/05/05 01:19:07;;;;;;;8.75;4.93;;;10.70;99.90;;;;;;4929565;28;20062;-90
2023/05/05 01:21:40;;;;;;;9.32;4.88;;;10.60;81.90;;;;;;5001086;28;20042;-91
2023/05/05 01:24:15;;;;;;;6.80;4.70;;;10.70;55.10;;;;;;4968557;28;20054;-90
2023/05/05 01:27:08;;;;;;;8.98;4.80;;;10.70;99.90;;;;;;5007243;28;20045;-89
2023/05/05 01:29:59;;;;;;;9.70;4.97;;;10.70;99.90;;;;;;4975801;28;20442;-90
2023/05/05 01:32:28;;;;;;;8.65;5.07;;;10.70;99.90;;;;;;4964066;28;20050;-90
2023/05/05 01:35:20;;;;;;;7.57;4.90;;;10.70;99.90;;;;;;5007624;28;20136;-90
2023/05/05 01:38:11;;;;;;;6.70;4.93;;;10.70;99.90;;;;;;4981551;28;20125;-90
2023/05/05 01:40:42;;;;;;;6.60;4.65;;;10.70;99.90;;;;;;4936842;28;20081;-90
2023/05/05 01:43:11;;;;;;;6.55;4.90;;;10.70;99.90;;;;;;4967750;28;20073;-89
2023/05/05 01:45:39;;;;;;;7.82;4.45;;;10.70;99.90;;;;;;4976715;28;20034;-89
2023/05/05 01:48:06;;;;;;;12.90;5.05;;;10.70;1.00;;;;;;4971972;28;20402;-90
2023/05/05 01:50:33;;;;;;;10.82;5.10;;;10.80;1.00;;;;;;4992066;28;20065;-89
2023/05/05 01:53:02;;;;;;;9.00;4.90;;;10.80;1.00;;;;;;4990677;28;20057;-89
2023/05/05 01:55:29;;;;;;;9.65;4.75;;;10.80;99.90;;;;;;4994306;28;20173;-90
2023/05/05 01:57:57;;;;;;;11.15;4.60;;;10.90;99.90;;;;;;4971758;28;20058;-90
2023/05/05 02:00:25;;;;;;;7.18;4.90;;;10.90;99.90;;;;;;4995143;28;20056;-90
2023/05/05 02:02:55;;;;;;;8.85;4.85;;;10.90;99.90;;;;;;4970455;28;20131;-90
2023/05/05 02:05:22;;;;;;;7.35;4.78;;;10.90;99.90;;;;;;4994080;28;20055;-89
2023/05/05 02:07:50;;;;;;;9.63;5.18;;;10.90;99.90;;;;;;4977141;28;20038;-89
2023/05/05 02:10:19;;;;;;;12.43;5.05;;;10.90;99.90;;;;;;4994335;28;20044;-89
2023/05/05 02:12:46;;;;;;;8.38;5.10;;;10.90;99.90;;;;;;4994413;28;20041;-89
2023/05/05 02:15:14;;;;;;;8.63;4.82;;;10.90;99.90;;;;;;5006789;28;20060;-90
2023/05/05 02:17:41;;;;;;;9.32;5.32;;;10.90;99.90;;;;;;4973039;28;20469;-90
2023/05/05 02:20:10;;;;;;;7.47;4.88;;;11.00;99.90;;;;;;4980923;28;20066;-90
2023/05/05 02:22:36;;;;;;;12.82;5.00;;;11.00;99.90;;;;;;4981606;28;20076;-90
2023/05/05 02:25:03;;;;;;;7.30;4.90;;;11.00;99.90;;;;;;4982174;28;20515;-90
2023/05/05 02:27:30;;;;;;;6.88;4.70;;;11.00;99.90;;;;;;4976060;28;20184;-90
2023/05/05 02:30:01;;;;;;;9.68;5.07;;;11.00;99.90;;;;;;4975570;28;20045;-90
2023/05/05 02:32:35;;;;;;;11.10;5.53;;;11.00;99.90;;;;;;4990944;28;20512;-90
2023/05/05 02:35:11;;;;;;;14.50;4.78;;;11.00;99.90;;;;;;4972344;28;20053;-89
2023/05/05 02:37:39;;;;;;;9.43;5.00;;;11.00;99.90;;;;;;4996605;28;20050;-89
2023/05/05 02:40:07;;;;;;;9.23;5.07;;;11.00;99.90;;;;;;4990024;28;20038;-90
2023/05/05 02:42:39;;;;;;;9.55;5.00;;;11.00;99.90;;;;;;4991362;28;20520;-90
2023/05/05 02:45:11;;;;;;;11.27;5.38;;;11.00;99.90;;;;;;4972188;28;20097;-90
2023/05/05 02:47:39;;;;;;;9.52;5.13;;;10.90;99.90;;;;;;4979281;28;20324;-90
2023/05/05 02:50:06;;;;;;;10.43;5.60;;;10.90;99.90;;;;;;4980283;28;20134;-90
2023/05/05 02:52:33;;;;;;;10.75;4.97;;;10.90;99.90;;;;;;4975628;28;20109;-89
2023/05/05 02:55:00;;;;;;;8.05;5.22;;;10.90;99.90;;;;;;4981412;28;20056;-90
2023/05/05 02:57:51;;;;;;;9.50;4.57;;;10.80;1.00;;;;;;4975326;28;20154;-90
2023/05/05 03:00:22;;;;;;;9.73;5.57;;;10.80;1.00;;;;;;4995638;28;20345;-89
2023/05/05 03:03:03;;;;;;;10.40;4.88;;;10.80;1.00;;;;;;5000910;28;20077;-90
2023/05/05 03:05:36;;;;;;;8.45;4.80;;;10.70;1.00;;;;;;4974556;28;20623;-90
2023/05/05 03:08:12;;;;;;;6.07;4.82;;;10.60;1.00;;;;;;5009401;28;20042;-89
2023/05/05 03:11:03;;;;;;;11.68;5.30;;;10.60;99.90;;;;;;4986906;28;20150;-90
2023/05/05 03:13:34;;;;;;;13.75;5.32;;;10.50;99.90;;;;;;4994569;28;20506;-90
2023/05/05 03:16:05;;;;;;;11.50;4.72;;;10.50;99.90;;;;;;4979768;28;20038;-89
2023/05/05 03:18:33;;;;;;;7.93;4.80;;;10.50;99.90;;;;;;4964191;28;20037;-90
2023/05/05 03:21:07;;;;;;;8.45;5.03;;;10.50;99.90;;;;;;4992098;28;20367;-90
2023/05/05 03:23:36;;;;;;;6.35;4.95;;;10.50;99.90;;;;;;4975294;28;20045;-89
2023/05/05 03:26:02;;;;;;;9.52;5.25;;;10.50;99.90;;;;;;4974389;28;20045;-90
2023/05/05 03:28:28;;;;;;;7.53;4.78;;;10.50;99.90;;;;;;4995410;28;20048;-90
2023/05/05 03:30:56;;;;;;;9.98;5.47;;;10.50;99.90;;;;;;4969223;28;20065;-90
2023/05/05 03:33:22;;;;;;;8.50;5.15;;;10.50;99.90;;;;;;4987338;28;20045;-90
2023/05/05 03:35:48;;;;;;;9.23;4.85;;;10.40;99.90;;;;;;4987394;28;20038;-90
2023/05/05 03:38:13;;;;;;;7.80;5.20;;;10.40;99.90;;;;;;4975365;28;20045;-90
2023/05/05 03:40:39;;;;;;;7.45;5.30;;;10.40;99.90;;;;;;4966312;28;20068;-90
2023/05/05 03:43:05;;;;;;;7.57;5.30;;;10.40;99.90;;;;;;4991183;28;20042;-90
2023/05/05 03:45:30;;;;;;;11.15;5.38;;;10.40;99.90;;;;;;4979283;28;20499;-90
2023/05/05 03:47:56;;;;;;;9.90;5.50;;;10.40;99.90;;;;;;4969162;28;20781;-90
2023/05/05 03:50:23;;;;;;;9.70;5.65;;;10.40;99.90;;;;;;4966733;28;20125;-89
2023/05/05 03:52:48;;;;;;;8.68;5.28;;;10.40;99.90;;;;;;4992377;28;20058;-90
2023/05/05 03:55:14;;;;;;;9.02;5.80;;;10.40;99.90;;;;;;4974855;28;20404;-89
2023/05/05 03:57:40;;;;;;;8.35;5.25;;;10.40;99.90;;;;;;4993838;28;20129;-89
2023/05/05 04:00:09;;;;;;;8.30;5.13;;;10.40;99.90;;;;;;4994427;28;20081;-90
2023/05/05 04:02:35;;;;;;;7.47;5.50;;;10.40;99.90;;;;;;4973894;28;20278;-90
2023/05/05 04:05:01;;;;;;;9.90;6.43;;;10.40;99.90;;;;;;4972234;28;20040;-90
2023/05/05 04:07:26;;;;;;;7.93;5.70;;;10.40;99.90;;;;;;4985466;28;20400;-90
2023/05/05 04:09:52;;;;;;;8.45;5.38;;;10.40;99.90;;;;;;4964613;28;20129;-90
2023/05/05 04:12:17;;;;;;;9.25;5.68;;;10.30;99.90;;;;;;4989019;28;20067;-90
2023/05/05 04:14:46;;;;;;;11.45;5.85;;;10.40;99.90;;;;;;4978256;28;20412;-90
2023/05/05 04:17:12;;;;;;;11.32;6.07;;;10.40;99.90;;;;;;4969436;28;20050;-90
2023/05/05 04:19:37;;;;;;;9.73;5.43;;;10.40;99.90;;;;;;4974959;28;20178;-90
2023/05/05 04:22:03;;;;;;;8.45;6.10;;;10.50;99.90;;;;;;4991262;28;20037;-90
2023/05/05 04:24:28;;;;;;;12.70;5.63;;;10.40;99.90;;;;;;4971269;28;20038;-91
2023/05/05 04:26:54;;;;;;;9.15;6.07;;;10.50;99.90;;;;;;4987977;28;20045;-91
2023/05/05 04:29:20;;;;;;;8.77;5.80;;;10.50;99.90;;;;;;4971567;28;20117;-92
2023/05/05 04:31:49;;;;;;;12.05;6.00;;;10.50;99.90;;;;;;4995285;28;20885;-92
2023/05/05 04:34:15;;;;;;;9.63;6.20;;;10.30;99.90;;;;;;4970193;28;20284;-94
2023/05/05 04:36:40;;;;;;;10.02;6.40;;;10.40;99.90;;;;;;4972817;28;20519;-93
2023/05/05 04:39:07;;;;;;;11.00;6.82;;;10.40;99.90;;;;;;4969860;28;20038;-92
2023/05/05 04:41:33;;;;;;;10.48;6.25;;;10.30;99.90;;;;;;4970631;28;20046;-92
2023/05/05 04:43:59;;;;;;;8.63;6.45;;;10.30;99.90;;;;;;4990464;28;20045;-92
2023/05/05 04:46:24;;;;;;;10.88;6.75;;;10.20;99.90;;;;;;4986117;28;20141;-93
2023/05/05 04:48:50;;;;;;;13.98;6.88;;;10.10;99.90;;;;;;4965169;28;20069;-93
2023/05/05 04:51:16;;;;;;;13.73;7.25;;;10.10;99.90;;;;;;4979038;28;20041;-92
2023/05/05 04:53:41;;;;;;;8.93;6.90;;;10.10;99.90;;;;;;4990343;28;20084;-93
2023/05/05 04:56:07;;;;;;;9.13;6.35;;;10.10;99.90;;;;;;4984177;28;20568;-93
2023/05/05 04:58:33;;;;;;;10.15;6.30;;;10.10;99.90;;;;;;4973277;28;21070;-91
2023/05/05 05:00:59;;;;;;;15.85;7.60;;;10.00;99.90;;;;;;4988796;28;20034;-93
2023/05/05 05:03:24;;;;;;;15.00;7.32;;;10.00;99.90;;;;;;4968415;28;20077;-92
2023/05/05 05:05:50;;;;;;;11.13;7.43;;;10.10;99.90;;;;;;4969425;28;20096;-93
2023/05/05 05:08:16;;;;;;;13.15;7.53;;;10.10;99.90;;;;;;4982806;28;20069;-92
2023/05/05 05:10:45;;;;;;;11.90;7.60;;;10.10;99.90;;;;;;4967290;28;20076;-92
2023/05/05 05:13:10;;;;;;;9.75;7.13;;;10.00;99.90;;;;;;4985763;28;20052;-91
2023/05/05 05:15:39;;;;;;;12.43;6.85;;;10.00;99.90;;;;;;4991519;28;20042;-92
2023/05/05 05:18:05;;;;;;;13.98;7.78;;;10.00;99.90;;;;;;4974412;28;20121;-92
2023/05/05 05:20:31;;;;;;;11.75;7.10;;;10.00;99.90;;;;;;4976225;28;20129;-92
2023/05/05 05:23:00;;;;;;;10.23;7.55;;;10.00;99.90;;;;;;4987889;28;20049;-92
2023/05/05 05:25:25;;;;;;;13.02;7.28;;;10.10;99.90;;;;;;4967442;28;20578;-92
2023/05/05 05:27:51;;;;;;;10.68;7.55;;;10.10;99.90;;;;;;4986129;28;20038;-92
2023/05/05 05:30:17;;;;;;;13.70;7.50;;;10.10;99.90;;;;;;4977675;28;20154;-91
2023/05/05 05:32:42;;;;;;;11.70;7.80;;;10.20;99.90;;;;;;4971210;28;20068;-92
2023/05/05 05:35:08;;;;;;;11.30;8.18;;;10.10;99.90;;;;;;4986442;28;20049;-92
2023/05/05 05:37:34;;;;;;;10.32;7.82;;;10.10;99.90;;;;;;4970222;28;20056;-92
2023/05/05 05:39:59;;;;;;;13.27;7.95;;;10.20;99.90;;;;;;4971738;28;20044;-92
2023/05/05 05:42:28;;;;;;;9.07;7.15;;;10.30;99.90;;;;;;4969291;28;20069;-92
2023/05/05 05:44:53;;;;;;;11.70;8.02;;;10.40;99.90;;;;;;4972327;28;20057;-92
2023/05/05 05:47:19;;;;;;;11.82;8.07;;;10.60;99.90;;;;;;4987669;28;20034;-92
2023/05/05 05:49:45;;;;;;;10.88;7.72;;;10.70;99.90;;;;;;4989062;28;20146;-92
2023/05/05 05:52:10;;;;;;;12.40;7.90;;;10.80;99.90;;;;;;4978545;28;20453;-92
2023/05/05 05:54:36;;;;;;;11.32;7.80;;;10.80;99.90;;;;;;4970798;28;20045;-93
2023/05/05 05:57:03;;;;;;;10.55;7.43;;;11.00;99.90;;;;;;4988919;28;20548;-92
2023/05/05 05:59:28;;;;;;;10.93;7.60;;;11.10;99.90;;;;;;4988342;28;20048;-92
2023/05/05 06:01:55;;;;;;;11.20;8.02;;;11.30;99.90;;;;;;4971162;28;20075;-91
2023/05/05 06:04:20;;;;;;;14.27;7.90;;;11.40;99.90;;;;;;4973627;28;20090;-93
2023/05/05 06:06:46;;;;;;;11.30;7.45;;;11.50;99.90;;;;;;4984713;28;20049;-92
2023/05/05 06:09:12;;;;;;;12.27;7.20;;;11.70;99.90;;;;;;4975679;28;20073;-91
2023/05/05 06:11:38;;;;;;;11.07;7.38;;;11.70;99.90;;;;;;4987408;28;20081;-91
2023/05/05 06:14:03;;;;;;;14.23;8.15;;;11.60;99.90;;;;;;4966873;28;20829;-92
2023/05/05 06:16:29;;;;;;;12.35;8.13;;;11.80;99.90;;;;;;4979704;28;20041;-92
2023/05/05 06:18:55;;;;;;;15.38;8.07;;;11.90;99.90;;;;;;4974184;28;20034;-91
2023/05/05 06:21:23;;;;;;;10.32;7.93;;;11.90;99.90;;;;;;4972311;28;20042;-91
2023/05/05 06:23:49;;;;;;;12.90;7.55;;;12.20;99.90;;;;;;4972360;28;20042;-91
2023/05/05 06:26:15;;;;;;;10.23;7.65;;;12.60;99.90;;;;;;4969754;28;20389;-92
2023/05/05 06:28:41;;;;;;;11.20;7.53;;;12.70;99.90;;;;;;4994241;28;20527;-92
2023/05/05 06:31:07;;;;;;;10.18;7.90;;;12.80;99.90;;;;;;4973650;28;20136;-91
2023/05/05 06:33:32;;;;;;;10.30;7.35;;;12.70;99.90;;;;;;4974529;28;20034;-91
2023/05/05 06:35:58;;;;;;;11.63;7.20;;;12.60;99.90;;;;;;4970123;28;20735;-92
2023/05/05 06:38:24;;;;;;;8.32;7.43;;;12.60;99.90;;;;;;4987458;28;20042;-92
2023/05/05 06:40:52;;;;;;;11.20;7.28;;;12.50;99.90;;;;;;4993625;28;20045;-92
2023/05/05 06:43:18;;;;;;;10.82;7.68;;;12.80;99.90;;;;;;4978436;28;20514;-92
2023/05/05 06:45:44;;;;;;;9.50;7.50;;;12.90;99.90;;;;;;4994543;28;20033;-91
2023/05/05 06:48:10;;;;;;;10.90;8.00;;;12.60;99.90;;;;;;4969299;28;20073;-92
2023/05/05 06:50:36;;;;;;;11.02;7.38;;;12.70;99.90;;;;;;4978746;28;20562;-91
2023/05/05 06:53:02;;;;;;;9.43;7.30;;;12.70;99.90;;;;;;4975767;28;20160;-92
2023/05/05 06:55:27;;;;;;;10.20;7.32;;;12.50;99.90;;;;;;4979566;28;20118;-92
2023/05/05 06:57:56;;;;;;;11.30;7.63;;;12.70;99.90;;;;;;4993581;28;20045;-91
2023/05/05 07:00:22;;;;;;;11.35;7.78;;;12.70;99.90;;;;;;4981061;28;20046;-91
2023/05/05 07:02:47;;;;;;;10.80;7.68;;;12.90;99.90;;;;;;4971000;28;20085;-92
2023/05/05 07:05:13;;;;;;;10.98;7.68;;;12.90;99.90;;;;;;4989297;28;20069;-91
2023/05/05 07:07:52;;;;;;;10.32;7.72;;;13.10;99.90;;;;;;4973804;28;20069;-92
2023/05/05 07:10:19;;;;;;;11.80;7.95;;;13.10;99.90;;;;;;4971181;28;20046;-92
2023/05/05 07:12:45;;;;;;;12.40;8.02;;;13.10;99.90;;;;;;4975291;28;20416;-92
2023/05/05 07:15:11;;;;;;;11.35;8.00;;;13.10;99.90;;;;;;4973137;28;20352;-92
2023/05/05 07:17:40;;;;;;;15.80;8.50;;;13.20;99.90;;;;;;4974878;28;20537;-91
2023/05/05 07:20:07;;;;;;;12.27;8.27;;;13.30;99.90;;;;;;4994006;28;20552;-92
2023/05/05 07:22:33;;;;;;;9.68;8.40;;;13.40;99.90;;;;;;4994244;28;20641;-92
2023/05/05 07:24:59;;;;;;;11.32;8.20;;;13.50;99.90;;;;;;4969217;28;20364;-91
2023/05/05 07:27:24;;;;;;;13.77;8.45;;;13.60;99.90;;;;;;4973785;28;20192;-92
2023/05/05 07:29:50;;;;;;;13.55;8.95;;;13.70;99.90;;;;;;4975789;28;20054;-92
2023/05/05 07:32:16;;;;;;;13.20;8.95;;;13.60;99.90;;;;;;4992635;28;20053;-91
2023/05/05 07:34:44;;;;;;;10.38;7.93;;;13.70;99.90;;;;;;4973845;28;20893;-91
2023/05/05 07:37:10;;;;;;;10.90;8.10;;;14.00;99.90;;;;;;4972720;28;20065;-91
2023/05/05 07:39:36;;;;;;;10.80;8.63;;;14.10;99.90;;;;;;4972311;28;20037;-91
2023/05/05 07:42:01;;;;;;;12.20;8.02;;;14.10;99.90;;;;;;4972373;28;20421;-92
2023/05/05 07:44:27;;;;;;;13.73;8.55;;;14.20;99.90;;;;;;4974899;28;20034;-91
2023/05/05 07:46:53;;;;;;;12.15;8.05;;;14.30;99.90;;;;;;4969365;28;20527;-91
2023/05/05 07:49:19;;;;;;;13.68;8.82;;;14.20;99.90;;;;;;4975491;28;20080;-91
2023/05/05 07:51:45;;;;;;;11.05;8.68;;;14.40;99.90;;;;;;4988159;28;20042;-90
2023/05/05 07:54:16;;;;;;;11.88;8.85;;;14.60;99.90;;;;;;4973478;28;20053;-90
2023/05/05 07:56:42;;;;;;;12.70;8.82;;;14.80;99.90;;;;;;4986842;28;20113;-91
2023/05/05 07:59:09;;;;;;;13.52;9.70;;;14.90;99.90;;;;;;4972603;28;20080;-91
2023/05/05 08:01:35;;;;;;;11.68;9.20;;;14.90;99.90;;;;;;4988397;28;20061;-90
2023/05/05 08:04:01;;;;;;;9.85;8.30;;;15.20;99.90;;;;;;4987828;28;20038;-91
2023/05/05 08:06:30;;;;;;;11.48;9.00;;;15.40;99.90;;;;;;4967876;28;20415;-90
2023/05/05 08:09:00;;;;;;;13.65;8.93;;;15.30;99.90;;;;;;4974850;28;20116;-91
2023/05/05 08:11:26;;;;;;;10.80;9.20;;;15.40;99.90;;;;;;4971617;28;20044;-91
2023/05/05 08:13:52;;;;;;;10.68;9.27;;;15.50;99.90;;;;;;4986546;28;20046;-90
2023/05/05 08:16:20;;;;;;;13.07;9.23;;;15.70;99.90;;;;;;4990253;28;20038;-91
2023/05/05 08:18:46;;;;;;;12.70;9.13;;;15.50;99.90;;;;;;4985711;28;20076;-91
2023/05/05 08:21:12;;;;;;;14.18;8.90;;;15.60;99.90;;;;;;4987230;28;20042;-91
2023/05/05 08:23:38;;;;;;;11.80;9.52;;;15.70;99.90;;;;;;4969910;28;20056;-90
2023/05/05 08:26:05;;;;;;;12.32;8.90;;;16.00;99.90;;;;;;4985567;28;20030;-91
2023/05/05 08:28:33;;;;;;;11.82;9.15;;;16.00;99.90;;;;;;4984223;28;20485;-91
2023/05/05 08:30:59;;;;;;;12.25;9.20;;;16.40;99.90;;;;;;4990364;28;20304;-90
2023/05/05 08:33:24;;;;;;;10.18;9.05;;;16.20;99.90;;;;;;4972431;28;20046;-90
2023/05/05 08:35:50;;;;;;;13.85;9.63;;;16.30;99.90;;;;;;4980643;28;20629;-90
2023/05/05 08:38:17;;;;;;;14.02;9.73;;;15.80;99.90;;;;;;4964532;28;20362;-90
2023/05/05 08:40:43;;;;;;;11.73;9.57;;;16.10;99.90;;;;;;4965478;28;20045;-91
2023/05/05 08:43:09;;;;;;;11.98;9.93;;;16.50;99.90;;;;;;4970927;28;20468;-90
2023/05/05 08:45:38;;;;;;;13.75;10.30;;;16.60;99.90;;;;;;5001980;28;20133;-91
2023/05/05 08:48:04;;;;;;;13.35;10.27;;;16.90;99.90;;;;;;5005065;28;20381;-90
2023/05/05 08:50:31;;;;;;;13.93;10.73;;;16.80;99.90;;;;;;4970058;28;20038;-90
2023/05/05 08:53:16;;;;;;;14.80;10.52;;;16.70;99.90;;;;;;4983952;28;20058;-90
2023/05/05 08:56:03;;;;;;;13.65;10.40;;;17.10;99.90;;;;;;4969841;28;20368;-89
2023/05/05 08:58:30;;;;;;;11.60;10.40;;;17.20;99.90;;;;;;4964737;28;20273;-89
2023/05/05 09:00:56;;;;;;;14.55;10.55;;;17.30;99.90;;;;;;4972419;28;20061;-89
2023/05/05 09:03:22;;;;;;;12.95;10.35;;;17.40;99.90;;;;;;4982675;28;20046;-90
2023/05/05 09:05:49;;;;;;;14.68;10.93;;;17.70;99.90;;;;;;4969506;28;20046;-89
2023/05/05 09:08:16;;;;;;;12.38;11.07;;;17.80;99.90;;;;;;4999011;28;20045;-90
2023/05/05 09:10:42;;;;;;;15.48;10.90;;;18.00;99.90;;;;;;4968522;28;20041;-90
2023/05/05 09:13:08;;;;;;;15.60;11.05;;;18.20;99.90;;;;;;4987290;28;20046;-90
2023/05/05 09:15:34;;;;;;;14.45;12.10;;;18.00;99.90;;;;;;4988713;28;20487;-90
2023/05/05 09:18:00;;;;;;;13.07;11.02;;;18.10;1.00;;;;;;4973307;28;20088;-90
2023/05/05 09:20:34;;;;;;;14.77;11.30;;;18.40;77.20;;;;;;4975903;28;20044;-90
2023/05/05 09:23:13;;;;;;;16.85;11.55;;;18.50;1.00;;;;;;4997028;28;20104;-89
2023/05/05 09:25:40;;;;;;;13.57;11.35;;;18.90;99.90;;;;;;4982397;28;20413;-89
2023/05/05 09:28:14;;;;;;;15.93;11.98;;;19.10;99.90;;;;;;4982519;28;20041;-90
2023/05/05 09:30:42;;;;;;;15.88;11.52;;;19.10;96.90;;;;;;4986316;28;20087;-89
2023/05/05 09:33:08;;;;;;;12.88;11.25;;;19.10;99.90;;;;;;4997240;28;20037;-89
2023/05/05 09:35:54;;;;;;;15.43;11.25;;;19.20;72.90;;;;;;4970119;28;20050;-90
2023/05/05 09:38:21;;;;;;;16.90;11.98;;;19.10;99.90;;;;;;4965539;28;20126;-89
2023/05/05 09:40:53;;;;;;;13.85;12.27;;;19.10;99.90;;;;;;4970283;28;20044;-89
2023/05/05 09:43:22;;;;;;;13.80;11.32;;;19.00;1.00;;;;;;4989131;28;20080;-89
2023/05/05 09:45:48;;;;;;;15.32;11.50;;;19.40;1.00;;;;;;4967390;28;20493;-89
2023/05/05 09:48:29;;;;;;;12.90;11.32;;;19.50;99.90;;;;;;4965076;28;20153;-89
2023/05/05 09:50:56;;;;;;;15.00;11.45;;;19.40;50.10;;;;;;5007613;28;20045;-90
2023/05/05 09:53:22;;;;;;;15.43;11.80;;;19.30;1.00;;;;;;4989075;28;20305;-90
2023/05/05 09:56:07;;;;;;;13.63;11.55;;;19.10;99.90;;;;;;4972912;28;20077;-89
2023/05/05 09:58:33;;;;;;;14.90;11.57;;;19.10;99.90;;;;;;4968702;28;20099;-89
2023/05/05 10:00:59;;;;;;;12.38;11.00;;;19.10;99.90;;;;;;4991494;28;20033;-89
2023/05/05 10:03:25;;;;;;;14.50;11.43;;;19.40;99.90;;;;;;4976624;28;20072;-88
2023/05/05 10:05:56;;;;;;;13.50;12.10;;;20.10;99.90;;;;;;5001946;28;20065;-89
2023/05/05 10:08:24;;;;;;;18.95;13.02;;;20.40;99.90;;;;;;4990191;28;20049;-89
2023/05/05 10:10:52;;;;;;;17.50;12.70;;;20.30;99.90;;;;;;4970724;28;20132;-89
2023/05/05 10:13:19;;;;;;;19.23;13.65;;;20.80;29.00;;;;;;4993467;28;20137;-90
2023/05/05 10:15:48;;;;;;;16.05;13.15;;;20.30;99.90;;;;;;4981038;28;20305;-90
2023/05/05 10:18:20;;;;;;;18.50;12.95;;;20.00;99.90;;;;;;4968947;28;20373;-89
2023/05/05 10:20:53;;;;;;;17.75;13.80;;;19.90;7.60;;;;;;4987303;28;20040;-89
2023/05/05 10:23:21;;;;;;;20.92;15.10;;;20.40;99.90;;;;;;4990630;28;20477;-89
2023/05/05 10:25:57;;;;;;;21.13;15.88;;;20.70;99.90;;;;;;5003063;28;20099;-89
2023/05/05 10:28:44;;;;;;;18.80;15.90;;;20.30;99.90;;;;;;4973875;28;20109;-89
2023/05/05 10:31:23;;;;;;;18.48;15.30;;;20.30;99.90;;;;;;4992053;28;20045;-89
2023/05/05 10:33:59;;;;;;;19.75;15.43;;;20.00;1.00;;;;;;4975153;28;20088;-88
2023/05/05 10:36:25;;;;;;;21.15;16.30;;;20.50;1.00;;;;;;4971751;28;20069;-89
2023/05/05 10:38:54;;;;;;;23.00;16.73;;;21.30;1.00;;;;;;4975228;28;20045;-88
2023/05/05 10:41:21;;;;;;;25.60;16.10;;;21.00;15.20;;;;;;4968585;28;20052;-88
2023/05/05 10:43:56;;;;;;;21.13;16.25;;;20.80;1.00;;;;;;4978380;28;20038;-89
2023/05/05 10:46:24;;;;;;;20.75;16.15;;;21.00;99.90;;;;;;4977501;28;20211;-88
2023/05/05 10:48:59;;;;;;;20.67;15.80;;;21.00;99.90;;;;;;5000887;28;20050;-89
2023/05/05 10:51:51;;;;;;;20.25;15.45;;;21.30;99.90;;;;;;4967114;28;20211;-88
2023/05/05 10:54:23;;;;;;;19.65;14.90;;;21.60;1.00;;;;;;4993807;28;20492;-89
2023/05/05 10:56:50;;;;;;;18.25;14.10;;;21.80;99.90;;;;;;4968457;28;20095;-89
2023/05/05 10:59:37;;;;;;;17.02;13.52;;;21.30;1.00;;;;;;4982184;28;20115;-89
2023/05/05 11:02:29;;;;;;;16.08;14.00;;;21.60;99.90;;;;;;4984524;28;20058;-89
2023/05/05 11:05:03;;;;;;;17.38;13.60;;;21.40;6.00;;;;;;4984980;28;20045;-88
2023/05/05 11:07:33;;;;;;;15.77;12.82;;;21.40;1.00;;;;;;4991562;28;20048;-89
2023/05/05 11:10:04;;;;;;;17.63;13.65;;;21.50;99.90;;;;;;4990743;28;20037;-89
2023/05/05 11:12:30;;;;;;;19.88;14.20;;;21.90;99.90;;;;;;4987415;28;20426;-89
2023/05/05 11:15:27;;;;;;;17.95;14.23;;;22.00;99.90;;;;;;4974219;28;20072;-88
2023/05/05 11:17:57;;;;;;;17.05;12.85;;;21.40;1.00;;;;;;4984488;28;20709;-89
2023/05/05 11:20:35;;;;;;;16.80;12.90;;;21.70;99.90;;;;;;4989669;28;20045;-89
2023/05/05 11:23:01;;;;;;;15.93;11.93;;;21.80;90.60;;;;;;4964715;28;20487;-89
2023/05/05 11:25:39;;;;;;;13.05;10.63;;;22.00;99.90;;;;;;4975489;28;20489;-89
2023/05/05 11:28:24;;;;;;;14.13;10.30;;;22.00;99.90;;;;;;4968644;28;20041;-89
2023/05/05 11:30:58;;;;;;;17.70;14.50;;;22.60;1.00;;;;;;4974595;28;20071;-89
2023/05/05 11:33:24;;;;;;;17.33;14.10;;;21.80;1.00;;;;;;4963606;28;20961;-90
2023/05/05 11:36:07;;;;;;;18.92;13.25;;;21.60;99.90;;;;;;4982036;28;20308;-89
2023/05/05 11:38:54;;;;;;;14.90;11.55;;;21.40;8.70;;;;;;4972962;28;20252;-89
2023/05/05 11:41:35;;;;;;;11.73;10.35;;;21.20;99.90;;;;;;4981844;28;20049;-89
2023/05/05 11:44:28;;;;;;;12.88;10.27;;;21.30;1.00;;;;;;4975024;28;20038;-89
2023/05/05 11:46:56;;;;;;;11.38;9.90;;;21.30;99.90;;;;;;4967414;28;20038;-90
2023/05/05 11:49:32;;;;;;;11.35;9.52;;;21.20;99.90;;;;;;4967083;28;20481;-89
2023/05/05 11:51:59;;;;;;;12.32;10.13;;;21.00;1.00;;;;;;4985572;28;20415;-89
2023/05/05 11:54:25;;;;;;;12.10;10.40;;;20.70;99.90;;;;;;4970410;28;20065;-90
2023/05/05 11:57:19;;;;;;;15.90;10.38;;;20.70;99.90;;;;;;4989989;28;20045;-89
2023/05/05 11:59:50;;;;;;;13.85;11.00;;;20.50;99.90;;;;;;4991923;28;20100;-89
2023/05/05 12:02:20;;;;;;;15.43;12.07;;;20.40;99.90;;;;;;4972552;28;20072;-89
2023/05/05 12:04:46;;;;;;;14.85;12.18;;;20.80;99.90;;;;;;4973596;28;20120;-89
2023/05/05 12:07:25;;;;;;;13.85;10.88;;;20.80;1.00;;;;;;4966392;28;20088;-89
2023/05/05 12:09:52;;;;;;;12.00;9.18;;;20.60;99.90;;;;;;4989638;28;20543;-88
2023/05/05 12:12:31;;;;;;;12.23;8.23;;;20.90;56.00;;;;;;4969865;28;20045;-89
2023/05/05 12:14:57;;;;;;;12.00;7.78;;;21.00;17.70;;;;;;4992654;28;20049;-89
2023/05/05 12:17:23;;;;;;;10.13;7.68;;;21.30;99.90;;;;;;4965770;28;20049;-89
2023/05/05 12:19:53;;;;;;;10.73;7.90;;;21.40;1.00;;;;;;4992122;28;20052;-89
2023/05/05 12:22:20;;;;;;;11.90;7.40;;;21.40;99.90;;;;;;5008784;28;20045;-89
2023/05/05 12:24:56;;;;;;;9.45;6.20;;;21.10;99.90;;;;;;4977798;28;20148;-90
2023/05/05 12:27:22;;;;;;;9.05;6.97;;;21.00;1.00;;;;;;4977575;28;20548;-89
2023/05/05 12:29:50;;;;;;;10.05;6.25;;;21.10;99.90;;;;;;4981858;28;20489;-89
2023/05/05 12:32:20;;;;;;;12.93;7.18;;;21.30;99.90;;;;;;4987171;28;20569;-88
2023/05/05 12:34:47;;;;;;;11.20;8.60;;;21.80;99.90;;;;;;4987348;28;20065;-90
2023/05/05 12:37:15;;;;;;;11.57;8.88;;;21.60;10.60;;;;;;4969192;28;20053;-89
2023/05/05 12:39:40;;;;;;;12.25;8.55;;;21.40;1.00;;;;;;4984379;28;20080;-89
2023/05/05 12:42:06;;;;;;;10.30;8.48;;;20.80;99.90;;;;;;4987057;28;20178;-89
2023/05/05 12:44:39;;;;;;;13.77;9.25;;;20.40;99.90;;;;;;4987336;28;20503;-89
2023/05/05 12:47:05;;;;;;;9.82;7.07;;;20.00;99.90;;;;;;4970321;28;20176;-89
2023/05/05 12:49:43;;;;;;;9.98;6.32;;;19.90;99.90;;;;;;4990309;28;20121;-89